Jarrettsville, MD (21084)

9:11 AM EST on March 06, 2015 (GMT -0500)
Jarrettsville | Change Station
CLOSE
Current Station
Personal Weather Station
Location: Jarrettsville, MD
Elevation: 627 ft
Nearby Weather Stations

Elev 627 ft 39.60 °N, 76.47 °W | Updated 51 seconds ago

Clear
Clear
12.5 °F
Feels Like 13 °F
N
3.0
Wind Variable Wind from North
Gusts 3.0 mph

Today
High -- | Low -- °F
--% Chance of Precip.
Yesterday
High -- | Low -- °F
Precip. -- in
6:31 AM 6:03 PM
Full, 99% visible
Pressure 30.63 in
Visibility 10.0 miles
Clouds Clear
Windchill 13 °F
Dew Point 5 °F
Humidity 71%
Rainfall in
Snow Depth Not available.
UV 2 out of 12
Pollen 1.10 out of 12
Air Quality Not available.
Flu Activity Not available.
METAR KMTN 061345Z 30007KT 10SM SKC M08/M16 A3063

More Conditions Fewer Conditions

Pressure 30.63 in
Visibility 10.0 miles
Clouds Clear
Windchill 13 °F
Dew Point 5 °F
Humidity 71%
Rainfall in
Snow Depth Not available.
UV 2 out of 12
Pollen 1.10 out of 12
Air Quality Not available.
Flu Activity Not available.
METAR KMTN 061345Z 30007KT 10SM SKC M08/M16 A3063

More Conditions Fewer Conditions

10-Day Weather Forecast

Almanac

Astronomy

Mar. 06, 2015 Rise Set
Actual Time
Civil Twilight
Nautical Twilight
Astronomical Twilight
Moon
Length of Visible Light
Length of Day
Tomorrow will be .
, % of the Moon is Illuminated

Today's Extremes

State Highs State Lows

Community

WunderPhotos

Upload Photos

1,803,275 photos uploaded!

WunderBlogs® & News

Nearby

Air Quality

  Air Quality AQ Index Pollutant
Not available.

Snow Depth

Station Depth Elevation

Earthquake Activity

City Distance Mag. Time & Date
Minimum magnitude displayed is 2.5.

Coastal Water Temperatures

Place Temperature

Nearby Weather Stations